Terminal Aerodrome Forecast
Issued by NWS

Home | Current Version | Previous Version | Text Only | Print | Product List | Glossary On
Versions: 1 2 3 4 5 6 7 8 9 10 11 12 13
000
FTUS45 KTWC 271128
TAFOLS
TAF
KOLS 271128Z 2712/2812 VRB03KT P6SM SCT070
      TEMPO 2712/2715 BKN070
     FM271900 23009KT P6SM SCT070
     FM280200 19005KT P6SM SCT070
     FM280400 VRB03KT P6SM FEW070=

USA.gov is the U.S. government's official web portal to all federal, state and local government web resources and services.